sensor_id;sensor_type;location;lat;lon;timestamp;temperature;humidity
25688;DHT22;17407;51.120;3.702;2024-03-08T06:55:22;5.80;99.90
25688;DHT22;17407;51.120;3.702;2024-03-08T06:57:48;5.70;99.90
25688;DHT22;17407;51.120;3.702;2024-03-08T07:00:13;5.50;99.90
25688;DHT22;17407;51.120;3.702;2024-03-08T07:02:44;5.50;99.90
25688;DHT22;17407;51.120;3.702;2024-03-08T07:05:15;5.40;99.90
25688;DHT22;17407;51.120;3.702;2024-03-08T07:07:42;5.40;99.90
25688;DHT22;17407;51.120;3.702;2024-03-08T07:10:08;5.30;99.90
25688;DHT22;17407;51.120;3.702;2024-03-08T07:12:37;5.40;99.90
25688;DHT22;17407;51.120;3.702;2024-03-08T07:15:05;5.40;99.90
25688;DHT22;17407;51.120;3.702;2024-03-08T07:17:31;5.30;99.90
25688;DHT22;17407;51.120;3.702;2024-03-08T07:20:00;5.40;99.90
25688;DHT22;17407;51.120;3.702;2024-03-08T07:22:32;5.50;99.90
25688;DHT22;17407;51.120;3.702;2024-03-08T07:24:58;5.50;99.90
25688;DHT22;17407;51.120;3.702;2024-03-08T07:27:46;5.50;99.90
25688;DHT22;17407;51.120;3.702;2024-03-08T07:30:12;5.60;99.90
25688;DHT22;17407;51.120;3.702;2024-03-08T07:32:37;5.50;99.90
25688;DHT22;17407;51.120;3.702;2024-03-08T07:35:04;5.60;99.90
25688;DHT22;17407;51.120;3.702;2024-03-08T07:37:29;5.60;99.90
25688;DHT22;17407;51.120;3.702;2024-03-08T07:39:57;5.60;99.90
25688;DHT22;17407;51.120;3.702;2024-03-08T07:42:23;5.70;99.90
25688;DHT22;17407;51.120;3.702;2024-03-08T07:44:49;5.70;99.90
25688;DHT22;17407;51.120;3.702;2024-03-08T07:47:15;5.60;99.90
25688;DHT22;17407;51.120;3.702;2024-03-08T07:49:43;5.60;99.90
25688;DHT22;17407;51.120;3.702;2024-03-08T07:52:09;5.70;99.90
25688;DHT22;17407;51.120;3.702;2024-03-08T07:54:41;5.80;99.90
25688;DHT22;17407;51.120;3.702;2024-03-08T07:57:07;5.80;99.90
25688;DHT22;17407;51.120;3.702;2024-03-08T07:59:32;5.90;99.90
25688;DHT22;17407;51.120;3.702;2024-03-08T08:01:58;5.90;99.90
25688;DHT22;17407;51.120;3.702;2024-03-08T08:04:25;6.00;99.90
25688;DHT22;17407;51.120;3.702;2024-03-08T08:06:52;6.00;99.90
25688;DHT22;17407;51.120;3.702;2024-03-08T08:09:18;6.00;99.90
25688;DHT22;17407;51.120;3.702;2024-03-08T08:11:57;6.10;99.90
25688;DHT22;17407;51.120;3.702;2024-03-08T08:14:22;6.20;99.90
25688;DHT22;17407;51.120;3.702;2024-03-08T08:16:48;6.20;99.90
25688;DHT22;17407;51.120;3.702;2024-03-08T08:19:18;6.30;99.90
25688;DHT22;17407;51.120;3.702;2024-03-08T08:21:44;6.30;99.90
25688;DHT22;17407;51.120;3.702;2024-03-08T08:24:10;6.40;99.90
25688;DHT22;17407;51.120;3.702;2024-03-08T08:26:36;6.40;99.90
25688;DHT22;17407;51.120;3.702;2024-03-08T08:29:02;6.40;99.90
25688;DHT22;17407;51.120;3.702;2024-03-08T08:31:27;6.40;99.90
25688;DHT22;17407;51.120;3.702;2024-03-08T08:33:53;6.50;99.90
25688;DHT22;17407;51.120;3.702;2024-03-08T08:36:24;6.60;99.90
25688;DHT22;17407;51.120;3.702;2024-03-08T08:38:50;6.60;99.90
25688;DHT22;17407;51.120;3.702;2024-03-08T08:41:16;6.60;99.90
25688;DHT22;17407;51.120;3.702;2024-03-08T08:43:43;6.70;99.90
25688;DHT22;17407;51.120;3.702;2024-03-08T08:46:11;6.70;99.90
25688;DHT22;17407;51.120;3.702;2024-03-08T08:48:39;6.70;99.90
25688;DHT22;17407;51.120;3.702;2024-03-08T08:51:12;6.80;99.90
25688;DHT22;17407;51.120;3.702;2024-03-08T08:53:42;6.90;99.90
25688;DHT22;17407;51.120;3.702;2024-03-08T08:56:12;7.00;99.90
25688;DHT22;17407;51.120;3.702;2024-03-08T08:58:43;7.10;99.90
25688;DHT22;17407;51.120;3.702;2024-03-08T09:01:09;7.10;99.90
25688;DHT22;17407;51.120;3.702;2024-03-08T09:03:36;7.20;99.90
25688;DHT22;17407;51.120;3.702;2024-03-08T09:06:04;7.30;99.90
25688;DHT22;17407;51.120;3.702;2024-03-08T09:08:29;7.30;99.90
25688;DHT22;17407;51.120;3.702;2024-03-08T09:10:55;7.50;99.90
25688;DHT22;17407;51.120;3.702;2024-03-08T09:13:21;7.60;99.90
25688;DHT22;17407;51.120;3.702;2024-03-08T09:15:47;7.60;99.90
25688;DHT22;17407;51.120;3.702;2024-03-08T09:18:12;7.60;99.90
25688;DHT22;17407;51.120;3.702;2024-03-08T09:20:38;7.70;99.90
25688;DHT22;17407;51.120;3.702;2024-03-08T09:23:06;7.90;99.90
25688;DHT22;17407;51.120;3.702;2024-03-08T09:25:33;8.00;99.90
25688;DHT22;17407;51.120;3.702;2024-03-08T09:27:59;8.10;99.90
25688;DHT22;17407;51.120;3.702;2024-03-08T09:30:25;8.20;99.90
25688;DHT22;17407;51.120;3.702;2024-03-08T09:32:51;8.30;99.90
25688;DHT22;17407;51.120;3.702;2024-03-08T09:35:17;8.40;99.90
25688;DHT22;17407;51.120;3.702;2024-03-08T09:37:42;8.60;99.90
25688;DHT22;17407;51.120;3.702;2024-03-08T09:40:08;8.60;99.90
25688;DHT22;17407;51.120;3.702;2024-03-08T09:42:41;8.70;99.90
25688;DHT22;17407;51.120;3.702;2024-03-08T09:45:11;8.80;99.90
25688;DHT22;17407;51.120;3.702;2024-03-08T09:47:41;8.90;99.90
25688;DHT22;17407;51.120;3.702;2024-03-08T09:50:08;9.00;99.90
25688;DHT22;17407;51.120;3.702;2024-03-08T09:52:40;9.10;99.90
25688;DHT22;17407;51.120;3.702;2024-03-08T09:55:06;9.30;99.90
25688;DHT22;17407;51.120;3.702;2024-03-08T09:57:33;9.40;99.90
25688;DHT22;17407;51.120;3.702;2024-03-08T09:59:59;9.50;99.90
25688;DHT22;17407;51.120;3.702;2024-03-08T10:02:25;9.50;99.90
25688;DHT22;17407;51.120;3.702;2024-03-08T10:04:51;9.60;99.90
25688;DHT22;17407;51.120;3.702;2024-03-08T10:07:19;9.60;99.90
25688;DHT22;17407;51.120;3.702;2024-03-08T10:09:44;9.60;99.90
25688;DHT22;17407;51.120;3.702;2024-03-08T10:12:16;9.70;99.90
25688;DHT22;17407;51.120;3.702;2024-03-08T10:14:42;9.80;99.90
25688;DHT22;17407;51.120;3.702;2024-03-08T10:17:09;9.80;99.90
25688;DHT22;17407;51.120;3.702;2024-03-08T10:19:35;10.00;99.90
25688;DHT22;17407;51.120;3.702;2024-03-08T10:22:01;10.10;99.90
25688;DHT22;17407;51.120;3.702;2024-03-08T10:24:26;10.30;99.90
25688;DHT22;17407;51.120;3.702;2024-03-08T10:26:53;10.30;99.90
25688;DHT22;17407;51.120;3.702;2024-03-08T10:29:20;10.40;99.90
25688;DHT22;17407;51.120;3.702;2024-03-08T10:31:45;10.50;99.90
25688;DHT22;17407;51.120;3.702;2024-03-08T10:34:11;10.50;99.90
25688;DHT22;17407;51.120;3.702;2024-03-08T10:36:39;10.60;99.90
25688;DHT22;17407;51.120;3.702;2024-03-08T10:39:21;10.70;99.90
25688;DHT22;17407;51.120;3.702;2024-03-08T10:41:58;10.80;99.90
25688;DHT22;17407;51.120;3.702;2024-03-08T10:49:32;10.90;99.90
25688;DHT22;17407;51.120;3.702;2024-03-08T10:52:03;11.00;99.90
25688;DHT22;17407;51.120;3.702;2024-03-08T10:54:31;11.10;99.90
25688;DHT22;17407;51.120;3.702;2024-03-08T10:56:57;11.20;99.90
25688;DHT22;17407;51.120;3.702;2024-03-08T10:59:25;11.30;99.90
25688;DHT22;17407;51.120;3.702;2024-03-08T11:01:53;11.40;99.90
25688;DHT22;17407;51.120;3.702;2024-03-08T11:04:18;11.40;99.90
25688;DHT22;17407;51.120;3.702;2024-03-08T11:06:49;11.40;99.90
25688;DHT22;17407;51.120;3.702;2024-03-08T11:09:35;11.50;99.90
25688;DHT22;17407;51.120;3.702;2024-03-08T11:12:27;11.60;99.90
25688;DHT22;17407;51.120;3.702;2024-03-08T11:15:02;11.70;99.90
25688;DHT22;17407;51.120;3.702;2024-03-08T11:22:42;12.00;99.90
25688;DHT22;17407;51.120;3.702;2024-03-08T11:25:39;12.00;99.90
25688;DHT22;17407;51.120;3.702;2024-03-08T11:28:15;12.10;99.90
25688;DHT22;17407;51.120;3.702;2024-03-08T11:30:46;12.10;99.90
25688;DHT22;17407;51.120;3.702;2024-03-08T11:33:16;12.30;99.90
25688;DHT22;17407;51.120;3.702;2024-03-08T11:35:43;12.40;99.90
25688;DHT22;17407;51.120;3.702;2024-03-08T11:38:11;12.40;99.90
25688;DHT22;17407;51.120;3.702;2024-03-08T11:40:39;12.30;99.90
25688;DHT22;17407;51.120;3.702;2024-03-08T11:43:05;12.40;99.90
25688;DHT22;17407;51.120;3.702;2024-03-08T11:45:36;12.50;99.90
25688;DHT22;17407;51.120;3.702;2024-03-08T11:48:05;12.50;99.90
25688;DHT22;17407;51.120;3.702;2024-03-08T11:50:30;12.60;99.90
25688;DHT22;17407;51.120;3.702;2024-03-08T11:53:04;12.70;99.90
25688;DHT22;17407;51.120;3.702;2024-03-08T11:55:31;12.70;99.90
25688;DHT22;17407;51.120;3.702;2024-03-08T11:58:04;12.90;99.90
25688;DHT22;17407;51.120;3.702;2024-03-08T12:00:30;12.90;99.90
25688;DHT22;17407;51.120;3.702;2024-03-08T12:03:08;13.10;99.90
25688;DHT22;17407;51.120;3.702;2024-03-08T12:05:35;13.20;99.90
25688;DHT22;17407;51.120;3.702;2024-03-08T12:08:02;13.20;99.90
25688;DHT22;17407;51.120;3.702;2024-03-08T12:10:28;13.30;99.90
25688;DHT22;17407;51.120;3.702;2024-03-08T12:12:56;13.30;99.90
25688;DHT22;17407;51.120;3.702;2024-03-08T12:15:25;13.50;99.90
25688;DHT22;17407;51.120;3.702;2024-03-08T12:17:52;13.50;99.90
25688;DHT22;17407;51.120;3.702;2024-03-08T12:20:26;13.60;99.90
25688;DHT22;17407;51.120;3.702;2024-03-08T12:22:53;13.60;99.90
25688;DHT22;17407;51.120;3.702;2024-03-08T12:25:19;13.50;99.90
25688;DHT22;17407;51.120;3.702;2024-03-08T12:27:45;13.50;99.90
25688;DHT22;17407;51.120;3.702;2024-03-08T12:33:06;13.70;99.90
25688;DHT22;17407;51.120;3.702;2024-03-08T12:35:36;13.80;99.90
25688;DHT22;17407;51.120;3.702;2024-03-08T12:38:02;13.70;99.90
25688;DHT22;17407;51.120;3.702;2024-03-08T12:40:30;13.80;99.90
25688;DHT22;17407;51.120;3.702;2024-03-08T12:43:06;13.90;99.90
25688;DHT22;17407;51.120;3.702;2024-03-08T12:45:32;13.70;99.90
25688;DHT22;17407;51.120;3.702;2024-03-08T12:47:58;13.80;99.90
25688;DHT22;17407;51.120;3.702;2024-03-08T12:50:25;13.90;99.90
25688;DHT22;17407;51.120;3.702;2024-03-08T12:52:51;14.00;99.90
25688;DHT22;17407;51.120;3.702;2024-03-08T12:55:21;14.00;99.90
25688;DHT22;17407;51.120;3.702;2024-03-08T12:57:46;14.10;99.90
25688;DHT22;17407;51.120;3.702;2024-03-08T13:00:14;14.20;99.90
25688;DHT22;17407;51.120;3.702;2024-03-08T13:02:47;14.20;99.90
25688;DHT22;17407;51.120;3.702;2024-03-08T13:05:13;14.30;99.90
25688;DHT22;17407;51.120;3.702;2024-03-08T13:07:42;14.40;99.90
25688;DHT22;17407;51.120;3.702;2024-03-08T13:10:15;14.50;99.90
25688;DHT22;17407;51.120;3.702;2024-03-08T13:12:44;14.70;99.90
25688;DHT22;17407;51.120;3.702;2024-03-08T13:15:10;14.70;99.90
25688;DHT22;17407;51.120;3.702;2024-03-08T13:17:41;14.60;99.90
25688;DHT22;17407;51.120;3.702;2024-03-08T13:20:08;14.60;99.90
25688;DHT22;17407;51.120;3.702;2024-03-08T13:22:35;14.60;99.90
25688;DHT22;17407;51.120;3.702;2024-03-08T13:25:01;14.70;99.90
25688;DHT22;17407;51.120;3.702;2024-03-08T13:27:28;14.80;99.90
25688;DHT22;17407;51.120;3.702;2024-03-08T13:29:54;14.80;99.90
25688;DHT22;17407;51.120;3.702;2024-03-08T13:32:19;14.70;99.90
25688;DHT22;17407;51.120;3.702;2024-03-08T13:34:49;14.70;99.90
25688;DHT22;17407;51.120;3.702;2024-03-08T13:37:16;14.70;99.90
25688;DHT22;17407;51.120;3.702;2024-03-08T13:39:42;14.70;99.90
25688;DHT22;17407;51.120;3.702;2024-03-08T13:42:13;14.70;99.90
25688;DHT22;17407;51.120;3.702;2024-03-08T13:44:50;14.80;99.90
25688;DHT22;17407;51.120;3.702;2024-03-08T13:47:16;14.70;99.90
25688;DHT22;17407;51.120;3.702;2024-03-08T13:49:43;14.80;99.90
25688;DHT22;17407;51.120;3.702;2024-03-08T13:52:09;14.70;99.90
25688;DHT22;17407;51.120;3.702;2024-03-08T13:54:36;14.70;99.90
25688;DHT22;17407;51.120;3.702;2024-03-08T13:57:02;14.60;99.90
25688;DHT22;17407;51.120;3.702;2024-03-08T13:59:33;14.60;99.90
25688;DHT22;17407;51.120;3.702;2024-03-08T14:02:00;14.60;99.90
25688;DHT22;17407;51.120;3.702;2024-03-08T14:04:30;14.60;99.90
25688;DHT22;17407;51.120;3.702;2024-03-08T14:06:56;14.60;99.90
25688;DHT22;17407;51.120;3.702;2024-03-08T14:09:25;14.60;99.90
25688;DHT22;17407;51.120;3.702;2024-03-08T14:11:55;14.70;99.90
25688;DHT22;17407;51.120;3.702;2024-03-08T14:14:21;14.80;99.90
25688;DHT22;17407;51.120;3.702;2024-03-08T14:16:49;14.70;99.90
25688;DHT22;17407;51.120;3.702;2024-03-08T14:19:18;14.70;99.90
25688;DHT22;17407;51.120;3.702;2024-03-08T14:21:44;14.70;99.90
25688;DHT22;17407;51.120;3.702;2024-03-08T14:24:10;14.60;99.90
25688;DHT22;17407;51.120;3.702;2024-03-08T14:26:36;14.50;99.90
25688;DHT22;17407;51.120;3.702;2024-03-08T14:29:04;14.60;99.90
25688;DHT22;17407;51.120;3.702;2024-03-08T14:31:31;14.60;99.90
25688;DHT22;17407;51.120;3.702;2024-03-08T14:33:57;14.60;99.90
25688;DHT22;17407;51.120;3.702;2024-03-08T14:36:24;14.50;99.90
25688;DHT22;17407;51.120;3.702;2024-03-08T14:38:51;14.60;99.90
25688;DHT22;17407;51.120;3.702;2024-03-08T14:41:18;14.80;99.90
25688;DHT22;17407;51.120;3.702;2024-03-08T14:43:44;14.60;99.90
25688;DHT22;17407;51.120;3.702;2024-03-08T14:46:19;14.60;99.90
25688;DHT22;17407;51.120;3.702;2024-03-08T14:49:04;14.70;99.90
25688;DHT22;17407;51.120;3.702;2024-03-08T14:51:30;14.80;99.90
25688;DHT22;17407;51.120;3.702;2024-03-08T14:53:58;14.90;99.90
25688;DHT22;17407;51.120;3.702;2024-03-08T14:56:23;15.00;99.90
25688;DHT22;17407;51.120;3.702;2024-03-08T14:58:52;14.80;99.90
25688;DHT22;17407;51.120;3.702;2024-03-08T15:01:19;14.90;99.90
25688;DHT22;17407;51.120;3.702;2024-03-08T15:03:50;14.90;99.90
25688;DHT22;17407;51.120;3.702;2024-03-08T15:06:16;14.80;99.90
25688;DHT22;17407;51.120;3.702;2024-03-08T15:08:46;14.80;99.90
25688;DHT22;17407;51.120;3.702;2024-03-08T15:11:13;14.80;99.90
25688;DHT22;17407;51.120;3.702;2024-03-08T15:13:53;14.80;99.90
25688;DHT22;17407;51.120;3.702;2024-03-08T15:16:19;14.80;99.90
25688;DHT22;17407;51.120;3.702;2024-03-08T15:18:48;14.80;99.90
25688;DHT22;17407;51.120;3.702;2024-03-08T15:21:17;14.70;99.90
25688;DHT22;17407;51.120;3.702;2024-03-08T15:23:46;14.70;99.90
25688;DHT22;17407;51.120;3.702;2024-03-08T15:26:19;14.80;99.90
25688;DHT22;17407;51.120;3.702;2024-03-08T15:28:45;14.80;99.90
25688;DHT22;17407;51.120;3.702;2024-03-08T15:31:12;14.90;99.90
25688;DHT22;17407;51.120;3.702;2024-03-08T15:33:39;14.90;99.90
25688;DHT22;17407;51.120;3.702;2024-03-08T15:36:16;14.80;99.90
25688;DHT22;17407;51.120;3.702;2024-03-08T15:38:43;14.60;99.90
25688;DHT22;17407;51.120;3.702;2024-03-08T15:41:16;14.60;99.90
25688;DHT22;17407;51.120;3.702;2024-03-08T15:43:43;14.70;99.90
25688;DHT22;17407;51.120;3.702;2024-03-08T15:46:10;14.80;99.90
25688;DHT22;17407;51.120;3.702;2024-03-08T15:48:37;14.90;99.90
25688;DHT22;17407;51.120;3.702;2024-03-08T15:51:06;15.00;99.90
25688;DHT22;17407;51.120;3.702;2024-03-08T15:53:32;14.90;99.90
25688;DHT22;17407;51.120;3.702;2024-03-08T15:56:01;14.80;99.90
25688;DHT22;17407;51.120;3.702;2024-03-08T15:58:28;14.70;99.90
25688;DHT22;17407;51.120;3.702;2024-03-08T16:00:56;14.60;99.90
25688;DHT22;17407;51.120;3.702;2024-03-08T16:03:22;14.50;99.90
25688;DHT22;17407;51.120;3.702;2024-03-08T16:05:48;14.60;99.90
25688;DHT22;17407;51.120;3.702;2024-03-08T16:08:16;14.60;99.90
25688;DHT22;17407;51.120;3.702;2024-03-08T16:10:47;14.50;99.90
25688;DHT22;17407;51.120;3.702;2024-03-08T16:13:23;14.40;99.90
25688;DHT22;17407;51.120;3.702;2024-03-08T16:15:51;14.30;99.90
25688;DHT22;17407;51.120;3.702;2024-03-08T16:18:17;14.20;99.90
25688;DHT22;17407;51.120;3.702;2024-03-08T16:20:48;14.30;99.90
25688;DHT22;17407;51.120;3.702;2024-03-08T16:23:15;14.30;99.90
25688;DHT22;17407;51.120;3.702;2024-03-08T16:25:41;14.00;99.90
25688;DHT22;17407;51.120;3.702;2024-03-08T16:28:10;14.00;99.90
25688;DHT22;17407;51.120;3.702;2024-03-08T16:30:43;13.90;99.90
25688;DHT22;17407;51.120;3.702;2024-03-08T16:33:14;13.80;99.90
25688;DHT22;17407;51.120;3.702;2024-03-08T16:35:40;13.80;99.90
25688;DHT22;17407;51.120;3.702;2024-03-08T16:38:10;13.70;99.90
25688;DHT22;17407;51.120;3.702;2024-03-08T16:40:39;13.70;99.90
25688;DHT22;17407;51.120;3.702;2024-03-08T16:43:05;13.60;99.90
25688;DHT22;17407;51.120;3.702;2024-03-08T16:45:31;13.60;99.90
25688;DHT22;17407;51.120;3.702;2024-03-08T16:47:57;13.50;99.90
25688;DHT22;17407;51.120;3.702;2024-03-08T16:50:22;13.30;99.90
25688;DHT22;17407;51.120;3.702;2024-03-08T16:52:52;13.30;99.90
25688;DHT22;17407;51.120;3.702;2024-03-08T16:55:18;13.30;99.90
25688;DHT22;17407;51.120;3.702;2024-03-08T16:57:46;13.30;99.90
25688;DHT22;17407;51.120;3.702;2024-03-08T17:00:17;13.20;99.90
25688;DHT22;17407;51.120;3.702;2024-03-08T17:02:54;13.20;99.90
25688;DHT22;17407;51.120;3.702;2024-03-08T17:05:19;13.10;99.90
25688;DHT22;17407;51.120;3.702;2024-03-08T17:07:49;13.00;99.90
25688;DHT22;17407;51.120;3.702;2024-03-08T17:10:21;12.90;99.90
25688;DHT22;17407;51.120;3.702;2024-03-08T17:12:49;12.90;99.90
25688;DHT22;17407;51.120;3.702;2024-03-08T17:15:21;12.80;99.90
25688;DHT22;17407;51.120;3.702;2024-03-08T17:17:48;12.80;99.90
25688;DHT22;17407;51.120;3.702;2024-03-08T17:20:15;12.80;99.90
25688;DHT22;17407;51.120;3.702;2024-03-08T17:22:50;12.70;99.90
25688;DHT22;17407;51.120;3.702;2024-03-08T17:25:18;12.60;99.90
25688;DHT22;17407;51.120;3.702;2024-03-08T17:27:52;12.50;99.90
25688;DHT22;17407;51.120;3.702;2024-03-08T17:30:24;12.40;99.90
25688;DHT22;17407;51.120;3.702;2024-03-08T17:32:57;12.30;99.90
25688;DHT22;17407;51.120;3.702;2024-03-08T17:35:24;12.30;99.90
25688;DHT22;17407;51.120;3.702;2024-03-08T17:37:52;12.30;99.90
25688;DHT22;17407;51.120;3.702;2024-03-08T17:40:19;12.30;99.90
25688;DHT22;17407;51.120;3.702;2024-03-08T17:42:52;12.20;99.90
25688;DHT22;17407;51.120;3.702;2024-03-08T17:45:23;12.10;99.90
25688;DHT22;17407;51.120;3.702;2024-03-08T17:47:52;12.00;99.90
25688;DHT22;17407;51.120;3.702;2024-03-08T17:50:19;12.00;99.90
25688;DHT22;17407;51.120;3.702;2024-03-08T17:52:46;12.00;99.90
25688;DHT22;17407;51.120;3.702;2024-03-08T17:55:13;12.00;99.90
25688;DHT22;17407;51.120;3.702;2024-03-08T17:57:49;11.90;99.90
25688;DHT22;17407;51.120;3.702;2024-03-08T18:00:19;11.80;99.90
25688;DHT22;17407;51.120;3.702;2024-03-08T18:02:54;11.70;99.90
25688;DHT22;17407;51.120;3.702;2024-03-08T18:05:23;11.60;99.90
25688;DHT22;17407;51.120;3.702;2024-03-08T18:07:56;11.60;99.90
25688;DHT22;17407;51.120;3.702;2024-03-08T18:10:23;11.50;99.90
25688;DHT22;17407;51.120;3.702;2024-03-08T18:12:53;11.50;99.90
25688;DHT22;17407;51.120;3.702;2024-03-08T18:15:20;11.50;99.90
25688;DHT22;17407;51.120;3.702;2024-03-08T18:17:51;11.50;99.90
25688;DHT22;17407;51.120;3.702;2024-03-08T18:20:18;11.50;99.90
25688;DHT22;17407;51.120;3.702;2024-03-08T18:22:49;11.40;99.90
25688;DHT22;17407;51.120;3.702;2024-03-08T18:25:15;11.40;99.90
25688;DHT22;17407;51.120;3.702;2024-03-08T18:27:45;11.50;99.90
25688;DHT22;17407;51.120;3.702;2024-03-08T18:30:12;11.30;99.90
25688;DHT22;17407;51.120;3.702;2024-03-08T18:32:50;11.30;99.90
25688;DHT22;17407;51.120;3.702;2024-03-08T18:35:19;11.30;99.90
25688;DHT22;17407;51.120;3.702;2024-03-08T18:37:47;11.20;99.90
25688;DHT22;17407;51.120;3.702;2024-03-08T18:40:19;11.30;99.90
25688;DHT22;17407;51.120;3.702;2024-03-08T18:42:51;11.20;99.90
25688;DHT22;17407;51.120;3.702;2024-03-08T18:45:20;11.00;99.90
25688;DHT22;17407;51.120;3.702;2024-03-08T18:47:51;11.10;99.90
25688;DHT22;17407;51.120;3.702;2024-03-08T18:50:20;11.00;99.90
25688;DHT22;17407;51.120;3.702;2024-03-08T18:52:47;11.00;99.90
25688;DHT22;17407;51.120;3.702;2024-03-08T18:55:14;11.10;99.90
25688;DHT22;17407;51.120;3.702;2024-03-08T18:57:47;11.00;99.90
25688;DHT22;17407;51.120;3.702;2024-03-08T19:00:21;10.90;99.90
25688;DHT22;17407;51.120;3.702;2024-03-08T19:02:57;10.90;99.90
25688;DHT22;17407;51.120;3.702;2024-03-08T19:05:25;10.90;99.90
25688;DHT22;17407;51.120;3.702;2024-03-08T19:07:53;10.80;99.90
25688;DHT22;17407;51.120;3.702;2024-03-08T19:10:22;10.80;99.90
25688;DHT22;17407;51.120;3.702;2024-03-08T19:12:55;10.90;99.90
25688;DHT22;17407;51.120;3.702;2024-03-08T19:15:28;10.90;99.90
25688;DHT22;17407;51.120;3.702;2024-03-08T19:17:56;10.90;99.90
25688;DHT22;17407;51.120;3.702;2024-03-08T19:20:24;10.90;99.90
25688;DHT22;17407;51.120;3.702;2024-03-08T19:22:53;11.00;99.90
25688;DHT22;17407;51.120;3.702;2024-03-08T19:25:30;10.90;99.90
25688;DHT22;17407;51.120;3.702;2024-03-08T19:28:05;11.00;99.90
25688;DHT22;17407;51.120;3.702;2024-03-08T19:30:32;11.00;99.90
25688;DHT22;17407;51.120;3.702;2024-03-08T19:33:02;10.90;99.90
25688;DHT22;17407;51.120;3.702;2024-03-08T19:35:29;10.90;99.90
25688;DHT22;17407;51.120;3.702;2024-03-08T19:37:57;11.00;99.90
25688;DHT22;17407;51.120;3.702;2024-03-08T19:40:30;10.90;99.90
25688;DHT22;17407;51.120;3.702;2024-03-08T19:43:01;10.90;99.90
25688;DHT22;17407;51.120;3.702;2024-03-08T19:45:28;10.80;99.90
25688;DHT22;17407;51.120;3.702;2024-03-08T19:47:59;10.80;99.90
25688;DHT22;17407;51.120;3.702;2024-03-08T19:50:26;10.70;99.90
25688;DHT22;17407;51.120;3.702;2024-03-08T19:52:54;10.70;99.90
25688;DHT22;17407;51.120;3.702;2024-03-08T19:55:21;10.70;99.90
25688;DHT22;17407;51.120;3.702;2024-03-08T19:57:48;10.80;99.90
25688;DHT22;17407;51.120;3.702;2024-03-08T20:00:17;10.80;99.90
25688;DHT22;17407;51.120;3.702;2024-03-08T20:02:48;10.90;99.90
25688;DHT22;17407;51.120;3.702;2024-03-08T20:05:15;10.90;99.90
25688;DHT22;17407;51.120;3.702;2024-03-08T20:07:44;10.80;99.90
25688;DHT22;17407;51.120;3.702;2024-03-08T20:10:11;10.80;99.90
25688;DHT22;17407;51.120;3.702;2024-03-08T20:12:39;10.70;99.90
25688;DHT22;17407;51.120;3.702;2024-03-08T20:15:09;10.70;99.90
25688;DHT22;17407;51.120;3.702;2024-03-08T20:17:36;10.60;99.90
25688;DHT22;17407;51.120;3.702;2024-03-08T20:20:06;10.70;99.90
25688;DHT22;17407;51.120;3.702;2024-03-08T20:22:32;10.70;99.90
25688;DHT22;17407;51.120;3.702;2024-03-08T20:24:58;10.80;99.90
25688;DHT22;17407;51.120;3.702;2024-03-08T20:27:24;10.80;99.90
25688;DHT22;17407;51.120;3.702;2024-03-08T20:29:55;10.70;99.90
25688;DHT22;17407;51.120;3.702;2024-03-08T20:32:21;10.70;99.90
25688;DHT22;17407;51.120;3.702;2024-03-08T20:34:47;10.60;99.90
25688;DHT22;17407;51.120;3.702;2024-03-08T20:37:12;10.60;99.90
25688;DHT22;17407;51.120;3.702;2024-03-08T20:39:39;10.60;99.90
25688;DHT22;17407;51.120;3.702;2024-03-08T20:42:05;10.60;99.90
25688;DHT22;17407;51.120;3.702;2024-03-08T20:44:31;10.60;99.90
25688;DHT22;17407;51.120;3.702;2024-03-08T20:46:57;10.50;99.90
25688;DHT22;17407;51.120;3.702;2024-03-08T20:49:26;10.50;99.90
25688;DHT22;17407;51.120;3.702;2024-03-08T20:51:52;10.60;99.90
25688;DHT22;17407;51.120;3.702;2024-03-08T20:54:18;10.60;99.90
25688;DHT22;17407;51.120;3.702;2024-03-08T20:56:43;10.60;99.90
25688;DHT22;17407;51.120;3.702;2024-03-08T20:59:09;10.60;99.90
25688;DHT22;17407;51.120;3.702;2024-03-08T21:01:37;10.60;99.90
25688;DHT22;17407;51.120;3.702;2024-03-08T21:04:03;10.60;99.90
25688;DHT22;17407;51.120;3.702;2024-03-08T21:06:30;10.60;99.90
25688;DHT22;17407;51.120;3.702;2024-03-08T21:08:56;10.60;99.90
25688;DHT22;17407;51.120;3.702;2024-03-08T21:11:22;10.50;99.90
25688;DHT22;17407;51.120;3.702;2024-03-08T21:13:50;10.50;99.90
25688;DHT22;17407;51.120;3.702;2024-03-08T21:16:17;10.40;99.90
25688;DHT22;17407;51.120;3.702;2024-03-08T21:18:44;10.40;99.90
25688;DHT22;17407;51.120;3.702;2024-03-08T21:21:09;10.40;99.90
25688;DHT22;17407;51.120;3.702;2024-03-08T21:23:35;10.50;99.90
25688;DHT22;17407;51.120;3.702;2024-03-08T21:26:01;10.50;99.90
25688;DHT22;17407;51.120;3.702;2024-03-08T21:28:27;10.50;99.90
25688;DHT22;17407;51.120;3.702;2024-03-08T21:30:55;10.40;99.90
25688;DHT22;17407;51.120;3.702;2024-03-08T21:33:22;10.30;99.90
25688;DHT22;17407;51.120;3.702;2024-03-08T21:35:48;10.40;99.90
25688;DHT22;17407;51.120;3.702;2024-03-08T21:38:14;10.40;99.90
25688;DHT22;17407;51.120;3.702;2024-03-08T21:40:40;10.40;99.90
25688;DHT22;17407;51.120;3.702;2024-03-08T21:43:07;10.40;99.90
25688;DHT22;17407;51.120;3.702;2024-03-08T21:45:35;10.50;99.90
25688;DHT22;17407;51.120;3.702;2024-03-08T21:48:02;10.50;99.90
25688;DHT22;17407;51.120;3.702;2024-03-08T21:50:29;10.50;99.90
25688;DHT22;17407;51.120;3.702;2024-03-08T21:52:56;10.40;99.90
25688;DHT22;17407;51.120;3.702;2024-03-08T21:55:22;10.40;99.90
25688;DHT22;17407;51.120;3.702;2024-03-08T21:57:50;10.40;99.90
25688;DHT22;17407;51.120;3.702;2024-03-08T22:00:17;10.30;99.90
25688;DHT22;17407;51.120;3.702;2024-03-08T22:02:44;10.40;99.90
25688;DHT22;17407;51.120;3.702;2024-03-08T22:05:13;10.40;99.90
25688;DHT22;17407;51.120;3.702;2024-03-08T22:07:46;10.40;99.90
25688;DHT22;17407;51.120;3.702;2024-03-08T22:10:13;10.40;99.90
25688;DHT22;17407;51.120;3.702;2024-03-08T22:12:48;10.50;99.90
25688;DHT22;17407;51.120;3.702;2024-03-08T22:15:14;10.40;99.90
25688;DHT22;17407;51.120;3.702;2024-03-08T22:17:45;10.30;99.90
25688;DHT22;17407;51.120;3.702;2024-03-08T22:20:12;10.30;99.90
25688;DHT22;17407;51.120;3.702;2024-03-08T22:22:51;10.20;99.90
25688;DHT22;17407;51.120;3.702;2024-03-08T22:25:17;10.20;99.90
25688;DHT22;17407;51.120;3.702;2024-03-08T22:27:44;10.20;99.90
25688;DHT22;17407;51.120;3.702;2024-03-08T22:30:10;10.20;99.90
25688;DHT22;17407;51.120;3.702;2024-03-08T22:32:37;10.20;99.90
25688;DHT22;17407;51.120;3.702;2024-03-08T22:35:03;10.20;99.90
25688;DHT22;17407;51.120;3.702;2024-03-08T22:37:30;10.30;99.90
25688;DHT22;17407;51.120;3.702;2024-03-08T22:39:55;10.20;99.90
25688;DHT22;17407;51.120;3.702;2024-03-08T22:42:21;10.20;99.90
25688;DHT22;17407;51.120;3.702;2024-03-08T22:44:47;10.30;99.90
25688;DHT22;17407;51.120;3.702;2024-03-08T22:47:12;10.20;99.90
25688;DHT22;17407;51.120;3.702;2024-03-08T22:49:38;10.20;99.90